Time;durP1;ratioP1;P1;durP2;ratioP2;P2;SDS_P1;SDS_P2;PMS_P1;PMS_P2;Temp;Humidity;BMP_temperature;BMP_pressure;BME280_temperature;BME280_humidity;BME280_pressure;Samples;Min_cycle;Max_cycle;Signal;HPM_P1;HPM_P2
2023/11/03 00:01:46;;;;;;;8.75;4.50;;;;;;;14.16;100.00;98241.81;5092516;28;20196;-50
2023/11/03 00:04:16;;;;;;;11.52;4.50;;;;;;;14.13;100.00;98234.94;5092996;28;20040;-46
2023/11/03 00:06:45;;;;;;;9.65;4.95;;;;;;;14.15;100.00;98224.88;5092690;28;20146;-45
2023/11/03 00:09:14;;;;;;;9.00;4.63;;;;;;;14.11;100.00;98230.75;5092781;28;20044;-46
2023/11/03 00:11:45;;;;;;;7.28;4.57;;;;;;;14.15;100.00;98227.56;5092296;28;20173;-45
2023/11/03 00:14:13;;;;;;;8.75;4.70;;;;;;;14.21;100.00;98221.56;5092533;28;20062;-45
2023/11/03 00:16:41;;;;;;;9.00;4.82;;;;;;;14.20;100.00;98221.72;5092738;28;20071;-45
2023/11/03 00:19:10;;;;;;;8.88;4.55;;;;;;;14.27;100.00;98214.69;5092300;28;20500;-45
2023/11/03 00:21:38;;;;;;;8.60;4.43;;;;;;;14.22;100.00;98214.34;5092321;28;20048;-47
2023/11/03 00:24:10;;;;;;;10.20;4.50;;;;;;;14.22;100.00;98211.66;5092219;28;20085;-46
2023/11/03 00:26:38;;;;;;;7.90;4.60;;;;;;;14.15;100.00;98203.44;5092024;28;20236;-47
2023/11/03 00:29:09;;;;;;;10.13;5.13;;;;;;;14.13;100.00;98193.88;5092262;28;20101;-46
2023/11/03 00:31:37;;;;;;;8.52;4.47;;;;;;;14.07;100.00;98173.09;5092314;28;20139;-48
2023/11/03 00:34:06;;;;;;;9.23;4.88;;;;;;;14.00;100.00;98170.25;5092113;28;20044;-45
2023/11/03 00:36:35;;;;;;;8.63;4.70;;;;;;;14.08;100.00;98178.28;5092196;28;20059;-47
2023/11/03 00:39:04;;;;;;;8.30;4.53;;;;;;;14.23;100.00;98171.28;5092127;28;20455;-47
2023/11/03 00:41:32;;;;;;;8.60;4.70;;;;;;;14.16;100.00;98174.78;5092040;28;20490;-47
2023/11/03 00:44:01;;;;;;;11.23;5.10;;;;;;;14.23;100.00;98179.31;5092502;28;20070;-45
2023/11/03 00:46:31;;;;;;;11.30;5.30;;;;;;;14.19;100.00;98180.66;5091818;28;20044;-46
2023/11/03 00:48:59;;;;;;;8.13;4.40;;;;;;;14.13;100.00;98170.59;5091747;28;20052;-46
2023/11/03 00:51:27;;;;;;;12.23;4.63;;;;;;;14.06;100.00;98171.41;5091544;28;20424;-46
2023/11/03 00:53:55;;;;;;;7.57;4.32;;;;;;;13.97;100.00;98162.50;5091649;28;20485;-46
2023/11/03 00:56:24;;;;;;;12.48;4.80;;;;;;;13.96;100.00;98159.00;5091710;28;20188;-48
2023/11/03 00:58:53;;;;;;;10.82;4.20;;;;;;;14.04;100.00;98153.66;5091657;28;20048;-46
2023/11/03 01:01:21;;;;;;;7.85;4.50;;;;;;;14.08;100.00;98158.66;5091221;28;20052;-47
2023/11/03 01:03:52;;;;;;;7.85;5.00;;;;;;;14.06;100.00;98152.66;5091603;28;20047;-46
2023/11/03 01:06:24;;;;;;;10.65;4.57;;;;;;;14.01;100.00;98147.78;5091455;28;20512;-46
2023/11/03 01:08:53;;;;;;;8.27;3.97;;;;;;;13.92;100.00;98143.41;5091566;28;20131;-46
2023/11/03 01:11:23;;;;;;;8.05;4.28;;;;;;;13.98;100.00;98142.75;5091614;28;20055;-46
2023/11/03 01:13:52;;;;;;;7.43;4.15;;;;;;;13.99;100.00;98137.25;5091461;28;20044;-46
2023/11/03 01:16:22;;;;;;;7.53;4.57;;;;;;;13.98;100.00;98135.53;5091385;28;20083;-46
2023/11/03 01:18:53;;;;;;;9.27;4.57;;;;;;;13.95;100.00;98118.97;5091419;28;20048;-46
2023/11/03 01:21:22;;;;;;;7.93;4.10;;;;;;;14.01;100.00;98113.78;5091243;28;20127;-46
2023/11/03 01:23:52;;;;;;;9.65;4.30;;;;;;;13.94;100.00;98101.19;5091076;28;20056;-46
2023/11/03 01:26:24;;;;;;;7.90;4.18;;;;;;;13.98;100.00;98097.19;5091253;28;20130;-46
2023/11/03 01:28:53;;;;;;;8.73;4.47;;;;;;;13.89;100.00;98098.16;5091309;28;20079;-46
2023/11/03 01:31:22;;;;;;;8.32;4.50;;;;;;;13.89;100.00;98100.84;5091553;28;20108;-46
2023/11/03 01:33:52;;;;;;;8.75;4.28;;;;;;;13.95;100.00;98103.72;5091065;28;20216;-46
2023/11/03 01:36:20;;;;;;;8.38;4.13;;;;;;;13.96;100.00;98107.22;5091309;28;20051;-48
2023/11/03 01:38:49;;;;;;;10.18;4.60;;;;;;;14.11;100.00;98102.91;5092100;28;20143;-47
2023/11/03 01:41:17;;;;;;;7.15;4.13;;;;;;;14.03;100.00;98102.91;5091751;28;20458;-48
2023/11/03 01:44:03;;;;;;;8.60;4.30;;;;;;;14.11;100.00;98096.72;5092342;28;20105;-45
2023/11/03 01:46:31;;;;;;;8.73;4.15;;;;;;;13.99;100.00;98093.50;5092077;28;20138;-45
2023/11/03 01:49:01;;;;;;;7.38;4.28;;;;;;;13.98;100.00;98094.50;5091217;28;20409;-46
2023/11/03 01:51:30;;;;;;;8.85;4.20;;;;;;;13.95;100.00;98093.00;5090927;28;20079;-46
2023/11/03 01:53:59;;;;;;;10.02;4.00;;;;;;;13.80;100.00;98083.94;5091038;28;20127;-47
2023/11/03 01:56:28;;;;;;;6.97;3.78;;;;;;;13.84;100.00;98085.28;5090693;28;20076;-46
2023/11/03 01:59:01;;;;;;;7.18;3.80;;;;;;;13.76;100.00;98069.19;5090577;28;20472;-46
2023/11/03 02:01:29;;;;;;;8.48;4.50;;;;;;;13.80;100.00;98067.00;5090738;28;20478;-46
2023/11/03 02:03:58;;;;;;;9.35;4.30;;;;;;;13.78;100.00;98069.00;5090622;28;20324;-47
2023/11/03 02:06:28;;;;;;;6.93;4.43;;;;;;;13.79;100.00;98057.28;5090745;28;20048;-45
2023/11/03 02:08:56;;;;;;;7.07;3.90;;;;;;;13.76;100.00;98055.78;5090586;28;20052;-45
2023/11/03 02:11:28;;;;;;;6.82;3.83;;;;;;;13.82;100.00;98041.75;5090345;28;20508;-44
2023/11/03 02:13:57;;;;;;;7.93;4.13;;;;;;;13.88;100.00;98037.53;5094594;28;20127;-45
2023/11/03 02:16:26;;;;;;;8.15;4.32;;;;;;;13.79;100.00;98019.78;5094829;28;20040;-46
2023/11/03 02:18:54;;;;;;;9.65;4.00;;;;;;;13.74;100.00;98023.81;5094649;28;20044;-47
2023/11/03 02:21:25;;;;;;;7.80;4.32;;;;;;;13.73;100.00;98014.09;5094597;28;20044;-45
2023/11/03 02:23:56;;;;;;;9.48;4.18;;;;;;;13.72;100.00;98023.16;5094434;28;20058;-45
2023/11/03 02:26:25;;;;;;;8.70;4.45;;;;;;;13.81;100.00;98024.00;5094644;28;20050;-46
2023/11/03 02:28:53;;;;;;;7.28;4.20;;;;;;;13.82;100.00;98032.88;5094635;28;20050;-46
2023/11/03 02:31:22;;;;;;;8.75;4.00;;;;;;;13.77;100.00;98027.16;5094770;28;20480;-45
2023/11/03 02:33:50;;;;;;;9.98;4.18;;;;;;;13.85;100.00;98027.16;5094620;28;20055;-46
2023/11/03 02:36:20;;;;;;;9.45;3.80;;;;;;;13.96;100.00;98016.94;5094511;28;20048;-46
2023/11/03 02:38:49;;;;;;;6.60;3.95;;;;;;;13.88;100.00;98010.75;5094645;28;20468;-48
2023/11/03 02:41:19;;;;;;;6.85;3.58;;;;;;;13.80;100.00;98013.41;5094472;28;20071;-45
2023/11/03 02:43:47;;;;;;;6.95;4.00;;;;;;;13.80;100.00;97998.22;5094298;28;20648;-46
2023/11/03 02:46:16;;;;;;;8.05;3.70;;;;;;;13.67;100.00;97981.78;5094358;28;20056;-45
2023/11/03 02:48:44;;;;;;;7.15;4.00;;;;;;;13.73;100.00;97975.75;5094410;28;20050;-45
2023/11/03 02:51:12;;;;;;;7.38;3.83;;;;;;;13.79;100.00;97979.59;5094190;28;20425;-45
2023/11/03 02:53:42;;;;;;;9.13;4.05;;;;;;;13.70;100.00;97970.72;5094504;28;20396;-46
2023/11/03 02:56:10;;;;;;;7.22;3.72;;;;;;;13.78;100.00;97967.19;5094351;28;20146;-45
2023/11/03 02:58:42;;;;;;;10.00;4.13;;;;;;;13.72;100.00;97950.81;5094181;28;20055;-49
2023/11/03 03:01:11;;;;;;;8.85;3.97;;;;;;;13.58;100.00;97939.91;5094067;28;20493;-46
2023/11/03 03:03:40;;;;;;;8.02;4.00;;;;;;;13.55;100.00;97929.53;5093835;28;20047;-46
2023/11/03 03:06:09;;;;;;;9.10;4.30;;;;;;;13.62;100.00;97933.25;5094209;28;20087;-46
2023/11/03 03:08:38;;;;;;;8.85;3.95;;;;;;;13.66;100.00;97916.66;5094037;28;20146;-46
2023/11/03 03:11:06;;;;;;;8.75;3.60;;;;;;;13.60;100.00;97917.31;5093965;28;20044;-46
2023/11/03 03:13:34;;;;;;;5.80;3.50;;;;;;;13.67;100.00;97912.13;5093745;28;20147;-47
2023/11/03 03:16:05;;;;;;;5.63;3.50;;;;;;;13.64;100.00;97913.31;5093601;28;20086;-46
2023/11/03 03:18:33;;;;;;;7.13;3.58;;;;;;;13.66;100.00;97907.78;5093681;28;20048;-47
2023/11/03 03:21:02;;;;;;;7.88;3.70;;;;;;;13.64;100.00;97907.13;5093368;28;20130;-49
2023/11/03 03:23:30;;;;;;;8.82;4.05;;;;;;;13.58;100.00;97905.94;5093288;28;20054;-46
2023/11/03 03:25:58;;;;;;;11.32;4.07;;;;;;;13.62;100.00;97904.59;5093607;28;20055;-47
2023/11/03 03:28:27;;;;;;;6.57;3.38;;;;;;;13.63;100.00;97906.28;5093825;28;20044;-45
2023/11/03 03:30:55;;;;;;;6.53;3.35;;;;;;;13.62;100.00;97909.97;5093263;28;20132;-48
2023/11/03 03:33:25;;;;;;;6.13;3.10;;;;;;;13.63;100.00;97917.00;5093289;28;20073;-46
2023/11/03 03:35:53;;;;;;;7.88;3.60;;;;;;;13.65;100.00;97925.69;5093176;28;20241;-45
2023/11/03 03:38:22;;;;;;;8.50;3.80;;;;;;;13.73;100.00;97924.84;5093310;28;20080;-46
2023/11/03 03:40:51;;;;;;;8.85;3.83;;;;;;;13.74;100.00;97922.00;5093299;28;20052;-45
2023/11/03 03:43:19;;;;;;;8.48;3.95;;;;;;;13.63;100.00;97922.34;5093114;28;20440;-46
2023/11/03 03:45:47;;;;;;;7.18;3.63;;;;;;;13.56;100.00;97913.31;5093174;28;20453;-45
2023/11/03 03:48:15;;;;;;;8.30;3.83;;;;;;;13.50;100.00;97900.56;5093208;28;20040;-45
2023/11/03 03:50:45;;;;;;;5.80;3.15;;;;;;;13.63;100.00;97890.22;5093355;28;20040;-46
2023/11/03 03:53:13;;;;;;;8.68;3.50;;;;;;;13.62;100.00;97893.91;5092855;28;20048;-46
2023/11/03 03:55:42;;;;;;;7.32;3.60;;;;;;;13.65;100.00;97882.84;5092894;28;20051;-45
2023/11/03 03:58:10;;;;;;;6.82;3.58;;;;;;;13.68;100.00;97884.31;5093326;28;20230;-47
2023/11/03 04:00:39;;;;;;;8.88;3.95;;;;;;;13.70;100.00;97885.84;5093086;28;20048;-46
2023/11/03 04:03:09;;;;;;;5.78;3.58;;;;;;;13.80;100.00;97884.81;5093327;28;20169;-46
2023/11/03 04:05:37;;;;;;;6.35;3.47;;;;;;;13.79;100.00;97875.09;5093229;28;20477;-46
2023/11/03 04:08:07;;;;;;;6.18;3.30;;;;;;;13.70;100.00;97872.47;5093424;28;20750;-47
2023/11/03 04:10:36;;;;;;;7.13;3.50;;;;;;;13.74;100.00;97873.78;5092945;28;20455;-47
2023/11/03 04:13:04;;;;;;;6.45;3.45;;;;;;;13.85;100.00;97875.25;5092757;28;20107;-46
2023/11/03 04:15:33;;;;;;;6.88;3.13;;;;;;;13.86;100.00;97874.25;5093064;28;20477;-47
2023/11/03 04:18:01;;;;;;;9.85;3.53;;;;;;;13.89;100.00;97873.06;5092945;28;20187;-47
2023/11/03 04:20:30;;;;;;;6.82;3.75;;;;;;;13.81;100.00;97849.00;5092762;28;20082;-46
2023/11/03 04:22:58;;;;;;;6.28;3.60;;;;;;;13.83;100.00;97842.44;5092788;28;20593;-46
2023/11/03 04:25:28;;;;;;;9.07;3.60;;;;;;;13.81;100.00;97835.59;5093509;28;20052;-49
2023/11/03 04:27:56;;;;;;;8.10;3.50;;;;;;;13.79;100.00;97834.91;5093753;28;20044;-46
2023/11/03 04:30:24;;;;;;;6.63;3.53;;;;;;;13.72;100.00;97832.94;5093736;28;20052;-48
2023/11/03 04:32:52;;;;;;;6.40;3.28;;;;;;;13.65;100.00;97818.53;5093482;28;20080;-46
2023/11/03 04:35:21;;;;;;;6.25;3.40;;;;;;;13.53;100.00;97803.84;5092713;28;20044;-46
2023/11/03 04:37:50;;;;;;;7.28;3.60;;;;;;;13.62;100.00;97808.19;5092779;28;20137;-45
2023/11/03 04:40:19;;;;;;;7.88;3.55;;;;;;;13.65;100.00;97797.13;5093700;28;20134;-46
2023/11/03 04:42:49;;;;;;;7.90;3.97;;;;;;;13.69;100.00;97801.09;5093130;28;20516;-45
2023/11/03 04:45:18;;;;;;;8.55;3.38;;;;;;;13.69;100.00;97797.59;5092600;28;20048;-46
2023/11/03 04:47:46;;;;;;;9.63;3.80;;;;;;;13.60;100.00;97785.22;5092210;28;20051;-45
2023/11/03 04:50:14;;;;;;;6.97;3.45;;;;;;;13.63;100.00;97783.06;5092453;28;20051;-45
2023/11/03 04:52:43;;;;;;;6.40;2.97;;;;;;;13.63;100.00;97777.72;5092901;28;20484;-47
2023/11/03 04:55:11;;;;;;;7.43;4.05;;;;;;;13.63;100.00;97767.00;5092851;28;20503;-45
2023/11/03 04:57:40;;;;;;;8.73;3.45;;;;;;;13.50;100.00;97761.31;5092800;28;20072;-46
2023/11/03 05:00:12;;;;;;;6.63;3.33;;;;;;;13.58;100.00;97753.25;5092662;28;20137;-46
2023/11/03 05:02:41;;;;;;;6.45;3.33;;;;;;;13.60;100.00;97753.91;5092402;28;20044;-47
2023/11/03 05:05:09;;;;;;;6.57;3.35;;;;;;;13.62;100.00;97746.56;5091660;28;20051;-46
2023/11/03 05:07:40;;;;;;;7.78;3.60;;;;;;;13.59;100.00;97744.22;5091694;28;20404;-46
2023/11/03 05:10:11;;;;;;;7.88;3.35;;;;;;;13.61;100.00;97731.50;5091445;28;20055;-46
2023/11/03 05:12:40;;;;;;;8.15;3.70;;;;;;;13.59;100.00;97740.72;5091759;28;20131;-46
2023/11/03 05:15:11;;;;;;;7.43;3.40;;;;;;;13.57;100.00;97732.84;5091302;28;20117;-46
2023/11/03 05:17:39;;;;;;;6.57;3.42;;;;;;;13.59;100.00;97732.66;5091341;28;20048;-46
2023/11/03 05:20:09;;;;;;;6.53;3.28;;;;;;;13.66;100.00;97741.69;5091467;28;20046;-46
2023/11/03 05:22:40;;;;;;;5.05;3.22;;;;;;;13.68;100.00;97745.88;5071137;28;20063;-45
2023/11/03 05:25:09;;;;;;;9.05;3.38;;;;;;;13.81;100.00;97747.19;5071104;28;20048;-47
2023/11/03 05:27:38;;;;;;;7.93;3.20;;;;;;;13.70;100.00;97737.66;5071465;28;20405;-46
2023/11/03 05:30:08;;;;;;;8.60;3.80;;;;;;;13.70;100.00;97746.56;5070941;28;20178;-46
2023/11/03 05:32:38;;;;;;;7.18;3.15;;;;;;;13.86;100.00;97744.81;5071262;28;20123;-46
2023/11/03 05:35:08;;;;;;;5.07;3.00;;;;;;;13.88;100.00;97748.13;5071168;28;20141;-45
2023/11/03 05:37:36;;;;;;;10.55;3.67;;;;;;;13.81;100.00;97741.81;5071043;28;20090;-45
2023/11/03 05:40:05;;;;;;;6.43;3.30;;;;;;;13.79;100.00;97736.63;5071225;28;20044;-45
2023/11/03 05:42:34;;;;;;;6.50;3.22;;;;;;;13.74;100.00;97725.59;5070281;28;20048;-47
2023/11/03 05:45:02;;;;;;;7.00;3.60;;;;;;;13.78;100.00;97728.75;5071321;28;20053;-45
2023/11/03 05:47:31;;;;;;;8.52;3.50;;;;;;;13.74;100.00;97723.75;5070988;28;20132;-47
2023/11/03 05:50:00;;;;;;;7.22;3.90;;;;;;;13.65;100.00;97724.78;5070943;28;20040;-46
2023/11/03 05:52:29;;;;;;;6.70;3.60;;;;;;;13.67;100.00;97728.13;5071285;28;20044;-45
2023/11/03 05:54:58;;;;;;;7.35;3.85;;;;;;;13.55;100.00;97732.19;5071033;28;20136;-45
2023/11/03 05:57:27;;;;;;;7.55;3.35;;;;;;;13.52;100.00;97729.88;5071557;28;20049;-46
2023/11/03 05:59:55;;;;;;;9.38;3.60;;;;;;;13.52;100.00;97716.47;5071857;28;20383;-46
2023/11/03 06:02:24;;;;;;;7.50;3.38;;;;;;;13.57;100.00;97719.47;5071477;28;20060;-45
2023/11/03 06:04:52;;;;;;;6.15;3.47;;;;;;;13.51;100.00;97720.16;5071698;28;20108;-45
2023/11/03 06:07:21;;;;;;;6.75;3.80;;;;;;;13.53;100.00;97726.19;5071735;28;20084;-45
2023/11/03 06:09:51;;;;;;;6.97;3.63;;;;;;;13.58;100.00;97720.28;5071476;28;20166;-46
2023/11/03 06:12:19;;;;;;;9.88;3.55;;;;;;;13.41;100.00;97708.78;5071782;28;20082;-46
2023/11/03 06:14:47;;;;;;;9.35;3.88;;;;;;;13.41;100.00;97701.63;5071537;28;20078;-47
2023/11/03 06:17:15;;;;;;;8.02;3.50;;;;;;;13.44;100.00;97706.63;5071106;28;20499;-45
2023/11/03 06:19:44;;;;;;;8.93;3.90;;;;;;;13.48;100.00;97714.28;5070810;28;20052;-46
2023/11/03 06:22:12;;;;;;;8.07;3.60;;;;;;;13.56;100.00;97715.13;5068900;28;20057;-49
2023/11/03 06:24:42;;;;;;;5.97;3.25;;;;;;;13.59;100.00;97721.97;5070120;28;20504;-46
2023/11/03 06:27:11;;;;;;;7.10;3.53;;;;;;;13.59;100.00;97717.44;5070328;28;20066;-46
2023/11/03 06:29:40;;;;;;;7.43;4.00;;;;;;;13.63;100.00;97710.75;5070693;28;20509;-45
2023/11/03 06:32:12;;;;;;;7.25;3.65;;;;;;;13.52;100.00;97699.56;5070688;28;20067;-45
2023/11/03 06:34:42;;;;;;;7.18;4.05;;;;;;;13.60;100.00;97711.06;5079383;28;20044;-45
2023/11/03 06:37:11;;;;;;;11.38;4.20;;;;;;;13.70;100.00;97714.41;5093079;28;20063;-46
2023/11/03 06:39:39;;;;;;;10.32;4.15;;;;;;;13.72;100.00;97700.84;5090471;28;20044;-44
2023/11/03 06:42:09;;;;;;;8.13;3.83;;;;;;;13.81;100.00;97707.00;5090632;28;20055;-45
2023/11/03 06:44:37;;;;;;;6.47;3.45;;;;;;;13.86;100.00;97710.81;5090436;28;20401;-46
2023/11/03 06:47:06;;;;;;;8.73;3.58;;;;;;;13.89;100.00;97713.13;5090700;28;20048;-47
2023/11/03 06:49:34;;;;;;;9.43;3.80;;;;;;;13.80;100.00;97713.34;5090629;28;20052;-46
2023/11/03 06:52:03;;;;;;;9.70;4.40;;;;;;;13.93;100.00;97721.66;5090349;28;20048;-44
2023/11/03 06:54:32;;;;;;;7.72;3.85;;;;;;;13.98;100.00;97716.59;5089996;28;20055;-46
2023/11/03 06:57:00;;;;;;;8.15;4.00;;;;;;;14.00;100.00;97718.13;5090238;28;20089;-45
2023/11/03 06:59:29;;;;;;;11.93;3.88;;;;;;;14.11;100.00;97730.28;5093032;28;20148;-46
2023/11/03 07:01:58;;;;;;;9.73;3.88;;;;;;;14.09;100.00;97716.25;5093687;28;20128;-45
2023/11/03 07:04:26;;;;;;;8.77;3.65;;;;;;;14.03;100.00;97714.25;5093829;28;20048;-46
2023/11/03 07:06:54;;;;;;;7.93;3.88;;;;;;;14.11;100.00;97711.53;5093546;28;20059;-44
2023/11/03 07:09:23;;;;;;;9.75;4.00;;;;;;;14.13;100.00;97714.88;5093498;28;20044;-46
2023/11/03 07:11:51;;;;;;;9.30;3.58;;;;;;;14.17;100.00;97709.97;5093733;28;20040;-45
2023/11/03 07:14:21;;;;;;;6.95;3.97;;;;;;;14.14;100.00;97713.00;5093173;28;20110;-46
2023/11/03 07:16:52;;;;;;;10.88;4.28;;;;;;;14.02;100.00;97717.94;5093079;28;20040;-45
2023/11/03 07:19:21;;;;;;;7.10;4.03;;;;;;;14.06;100.00;97703.16;5093453;28;20097;-45
2023/11/03 07:21:50;;;;;;;9.52;4.07;;;;;;;14.03;100.00;97698.16;5093680;28;20063;-44
2023/11/03 07:24:20;;;;;;;11.98;4.82;;;;;;;13.94;100.00;97688.50;5093618;28;20146;-46
2023/11/03 07:26:50;;;;;;;10.90;4.22;;;;;;;13.94;100.00;97685.81;5093451;28;20097;-45
2023/11/03 07:29:19;;;;;;;8.50;4.53;;;;;;;13.88;100.00;97675.78;5093274;28;20068;-45
2023/11/03 07:31:47;;;;;;;9.52;4.65;;;;;;;13.94;100.00;97669.75;5093147;28;20083;-45
2023/11/03 07:34:18;;;;;;;11.00;5.38;;;;;;;13.90;100.00;97658.56;5092938;28;20123;-46
2023/11/03 07:36:47;;;;;;;9.57;4.95;;;;;;;13.79;100.00;97650.06;5093476;28;20067;-46
2023/11/03 07:39:15;;;;;;;7.57;4.13;;;;;;;13.79;100.00;97642.00;5092961;28;20414;-46
2023/11/03 07:41:43;;;;;;;7.60;4.32;;;;;;;13.68;100.00;97628.00;5093166;28;20048;-46
2023/11/03 07:44:12;;;;;;;7.40;4.70;;;;;;;13.60;100.00;97620.00;5093141;28;20040;-46
2023/11/03 07:46:41;;;;;;;10.32;5.57;;;;;;;13.66;100.00;97608.59;5093306;28;20059;-46
2023/11/03 07:49:09;;;;;;;11.43;5.43;;;;;;;13.70;100.00;97623.31;5093487;28;20044;-46
2023/11/03 07:51:39;;;;;;;10.88;5.22;;;;;;;13.90;100.00;97652.34;5092965;28;20080;-46
2023/11/03 07:54:07;;;;;;;9.30;5.40;;;;;;;13.99;100.00;97653.94;5092658;28;20048;-46
2023/11/03 07:56:36;;;;;;;9.88;5.57;;;;;;;13.90;100.00;97642.47;5092856;28;20103;-46
2023/11/03 07:59:04;;;;;;;13.05;7.07;;;;;;;13.79;100.00;97633.97;5092782;28;20125;-48
2023/11/03 08:01:33;;;;;;;14.20;7.78;;;;;;;13.76;100.00;97616.41;5092688;28;20120;-50
2023/11/03 08:04:01;;;;;;;12.50;6.53;;;;;;;13.69;100.00;97602.88;5092791;28;20180;-46
2023/11/03 08:06:30;;;;;;;10.98;6.30;;;;;;;13.54;100.00;97601.97;5092416;28;20136;-46
2023/11/03 08:09:00;;;;;;;10.88;6.53;;;;;;;13.69;100.00;97610.09;5091490;28;20050;-45
2023/11/03 08:11:28;;;;;;;9.60;5.63;;;;;;;13.64;100.00;97589.19;5090178;28;20135;-46
2023/11/03 08:13:56;;;;;;;10.35;5.47;;;;;;;13.70;100.00;97584.97;5092377;28;20044;-46
2023/11/03 08:16:26;;;;;;;9.43;5.93;;;;;;;13.63;100.00;97584.84;5092364;28;20079;-46
2023/11/03 08:18:57;;;;;;;13.30;6.40;;;;;;;13.57;100.00;97574.84;5092120;28;20047;-45
2023/11/03 08:21:26;;;;;;;12.00;6.70;;;;;;;13.61;100.00;97573.50;5091782;28;20040;-45
2023/11/03 08:23:54;;;;;;;13.00;6.38;;;;;;;13.73;100.00;97576.59;5091522;28;20052;-46
2023/11/03 08:26:24;;;;;;;11.85;6.10;;;;;;;13.81;100.00;97576.56;5092239;28;20076;-45
2023/11/03 08:28:52;;;;;;;12.63;6.50;;;;;;;13.71;100.00;97578.63;5091633;28;20063;-45
2023/11/03 08:31:20;;;;;;;12.25;6.13;;;;;;;13.78;100.00;97573.38;5093847;28;20127;-47
2023/11/03 08:33:50;;;;;;;14.85;6.35;;;;;;;13.94;100.00;97567.91;5092533;28;20117;-46
2023/11/03 08:36:18;;;;;;;13.82;6.95;;;;;;;14.01;100.00;97560.84;5091750;28;20052;-46
2023/11/03 08:38:46;;;;;;;15.13;7.05;;;;;;;13.97;100.00;97554.97;5091723;28;20476;-47
2023/11/03 08:41:14;;;;;;;15.45;7.97;;;;;;;13.98;100.00;97582.59;5092138;28;20044;-45
2023/11/03 08:43:46;;;;;;;13.98;8.38;;;;;;;14.20;100.00;97613.97;5091476;28;20044;-47
2023/11/03 08:46:15;;;;;;;14.07;8.55;;;;;;;14.02;100.00;97589.28;5091577;28;20078;-46
2023/11/03 08:48:43;;;;;;;13.02;7.63;;;;;;;14.07;100.00;97586.91;5091565;28;20354;-46
2023/11/03 08:51:12;;;;;;;15.43;7.97;;;;;;;14.06;100.00;97566.47;5091592;28;20068;-45
2023/11/03 08:53:43;;;;;;;13.68;8.02;;;;;;;14.05;100.00;97572.84;5091330;28;20058;-46
2023/11/03 08:56:13;;;;;;;16.58;8.35;;;;;;;14.11;100.00;97569.47;5091331;28;20059;-47
2023/11/03 08:58:42;;;;;;;15.32;8.63;;;;;;;13.97;100.00;97554.16;5091363;28;20138;-46
2023/11/03 09:01:12;;;;;;;13.63;8.38;;;;;;;13.81;100.00;97546.25;5091204;28;20140;-45
2023/11/03 09:03:40;;;;;;;15.95;7.85;;;;;;;13.87;100.00;97521.41;5091044;28;20124;-46
2023/11/03 09:06:11;;;;;;;13.68;7.32;;;;;;;13.72;100.00;97518.69;5091331;28;20449;-46
2023/11/03 09:08:40;;;;;;;13.43;6.85;;;;;;;13.81;100.00;97506.06;5090900;28;20081;-44
2023/11/03 09:11:10;;;;;;;14.18;6.82;;;;;;;13.89;100.00;97492.56;5090864;28;20043;-46
2023/11/03 09:13:51;;;;;;;12.48;6.47;;;;;;;14.03;100.00;97500.66;5090839;28;20508;-47
2023/11/03 09:16:22;;;;;;;13.43;6.47;;;;;;;14.14;100.00;97485.16;5090760;28;20139;-48
2023/11/03 09:18:52;;;;;;;10.80;5.60;;;;;;;14.11;100.00;97490.91;5091455;28;20044;-46
2023/11/03 09:21:21;;;;;;;13.02;6.57;;;;;;;14.23;100.00;97506.34;5090828;28;20409;-46
2023/11/03 09:23:50;;;;;;;12.40;6.80;;;;;;;14.32;100.00;97558.06;5089478;28;20484;-45
2023/11/03 09:26:18;;;;;;;18.23;7.68;;;;;;;14.32;100.00;97580.34;5091306;28;20050;-47
2023/11/03 09:28:49;;;;;;;18.13;7.80;;;;;;;14.37;100.00;97609.28;5091148;28;20044;-47
2023/11/03 09:31:17;;;;;;;14.63;7.47;;;;;;;14.29;100.00;97623.59;5090850;28;20134;-45
2023/11/03 09:33:47;;;;;;;15.55;7.72;;;;;;;14.30;100.00;97614.56;5090697;28;20052;-45
2023/11/03 09:36:16;;;;;;;16.45;8.07;;;;;;;14.32;100.00;97628.59;5090575;28;20270;-46
2023/11/03 09:38:44;;;;;;;14.48;7.80;;;;;;;14.33;100.00;97651.72;5091082;28;20086;-47
2023/11/03 09:41:13;;;;;;;17.02;8.30;;;;;;;14.33;100.00;97678.53;5091049;28;20101;-46
2023/11/03 09:43:42;;;;;;;15.80;7.93;;;;;;;14.38;100.00;97704.84;5090981;28;20044;-47
2023/11/03 09:46:10;;;;;;;14.05;7.93;;;;;;;14.36;100.00;97695.28;5090744;28;20044;-47
2023/11/03 09:48:39;;;;;;;13.60;7.47;;;;;;;14.39;100.00;97700.31;5090525;28;20508;-44
2023/11/03 09:51:09;;;;;;;14.35;7.72;;;;;;;14.29;100.00;97693.31;5090515;28;20122;-46
2023/11/03 09:53:42;;;;;;;14.25;7.72;;;;;;;14.31;100.00;97693.13;5090669;28;20071;-47
2023/11/03 09:56:10;;;;;;;;;;;;;;;14.21;100.00;97703.25;5091417;28;20044;-46
2023/11/03 09:58:39;;;;;;;14.70;6.97;;;;;;;14.10;100.00;97704.50;5091182;28;20013;-47
2023/11/03 10:01:15;;;;;;;10.90;6.22;;;;;;;14.07;100.00;97699.47;5091266;28;20044;-47
2023/11/03 10:03:44;;;;;;;13.10;6.45;;;;;;;14.02;100.00;97702.69;5090273;28;20083;-49
2023/11/03 10:06:14;;;;;;;12.88;6.75;;;;;;;13.93;100.00;97695.69;5090409;28;20052;-48
2023/11/03 10:08:43;;;;;;;12.38;6.35;;;;;;;13.97;100.00;97691.66;5090489;28;20066;-46
2023/11/03 10:11:12;;;;;;;12.70;6.10;;;;;;;14.14;100.00;97668.28;5090277;28;20454;-48
2023/11/03 10:13:40;;;;;;;11.10;6.60;;;;;;;14.09;100.00;97665.31;5090526;28;20095;-47
2023/11/03 10:16:09;;;;;;;14.35;6.55;;;;;;;14.15;100.00;97658.38;5090332;28;20039;-46
2023/11/03 10:18:38;;;;;;;11.52;7.00;;;;;;;14.16;100.00;97650.16;5090554;28;20401;-46
2023/11/03 10:21:08;;;;;;;12.90;6.40;;;;;;;14.26;100.00;97634.66;5090691;28;20048;-46
2023/11/03 10:23:38;;;;;;;9.68;5.85;;;;;;;14.29;100.00;97628.97;5091028;28;20056;-49
2023/11/03 10:26:07;;;;;;;10.07;6.05;;;;;;;14.30;100.00;97625.28;5090771;28;20044;-47
2023/11/03 10:28:35;;;;;;;11.93;6.35;;;;;;;14.26;100.00;97618.59;5090281;28;20073;-46
2023/11/03 10:31:06;;;;;;;10.85;5.95;;;;;;;14.19;100.00;97617.66;5090177;28;20075;-46
2023/11/03 10:33:34;;;;;;;11.15;6.15;;;;;;;14.25;100.00;97606.19;5090472;28;20109;-46
2023/11/03 10:36:03;;;;;;;13.07;6.05;;;;;;;14.27;100.00;97588.06;5094274;28;20505;-47
2023/11/03 10:38:32;;;;;;;9.52;6.00;;;;;;;14.19;100.00;97572.09;5094123;28;20044;-45
2023/11/03 10:41:07;;;;;;;12.00;6.60;;;;;;;14.32;100.00;97595.59;5094630;28;20478;-46
2023/11/03 10:43:40;;;;;;;8.98;6.15;;;;;;;14.32;100.00;97583.03;5094078;28;20495;-45
2023/11/03 10:46:18;;;;;;;15.45;7.13;;;;;;;14.08;100.00;97542.16;5094251;28;20048;-46
2023/11/03 10:48:51;;;;;;;11.45;6.30;;;;;;;14.03;100.00;97537.34;5094138;28;20048;-46
2023/11/03 10:51:23;;;;;;;;;;;;;;;13.79;100.00;97550.94;5094356;28;20508;-46
2023/11/03 10:54:05;;;;;;;10.60;6.35;;;;;;;13.93;100.00;97531.41;5093897;28;19920;-46
2023/11/03 10:56:35;;;;;;;11.90;6.25;;;;;;;13.95;100.00;97542.78;5093786;28;20072;-46
2023/11/03 10:59:25;;;;;;;11.52;6.65;;;;;;;13.86;100.00;97523.25;5093880;28;20504;-46
2023/11/03 11:02:11;;;;;;;14.93;7.18;;;;;;;13.97;100.00;97524.66;5093972;28;20063;-47
2023/11/03 11:04:49;;;;;;;12.18;6.18;;;;;;;13.89;100.00;97514.00;5093708;28;20044;-45
2023/11/03 11:07:21;;;;;;;12.18;6.15;;;;;;;13.91;100.00;97504.78;5093953;28;20139;-46
2023/11/03 11:09:49;;;;;;;10.63;6.20;;;;;;;13.96;100.00;97488.16;5096733;28;20568;-46
2023/11/03 11:12:19;;;;;;;10.85;6.60;;;;;;;13.88;100.00;97474.84;5097205;28;20377;-47
2023/11/03 11:14:48;;;;;;;10.05;6.57;;;;;;;13.89;100.00;97471.13;5093780;28;20098;-46
2023/11/03 11:17:34;;;;;;;10.43;6.00;;;;;;;13.85;100.00;97475.19;5093827;28;20055;-47
2023/11/03 11:20:05;;;;;;;10.05;5.85;;;;;;;13.90;100.00;97433.47;5093493;28;20790;-46
2023/11/03 11:22:35;;;;;;;9.43;5.82;;;;;;;13.78;100.00;97412.63;5093517;28;20055;-46
2023/11/03 11:25:07;;;;;;;12.43;5.40;;;;;;;13.65;100.00;97355.16;5093506;28;20055;-47
2023/11/03 11:27:39;;;;;;;11.27;6.05;;;;;;;13.65;100.00;97352.47;5093264;28;20567;-46
2023/11/03 11:30:14;;;;;;;11.73;5.57;;;;;;;13.71;100.00;97378.56;5093484;28;20051;-46
2023/11/03 11:32:49;;;;;;;11.60;5.63;;;;;;;13.67;100.00;97361.16;5093556;28;20044;-49